James Craik, Argentina
Current Conditions -  °F | °C
As of 9:00 AM on Saturday 20 Dec 2014 (Local Time) from SACO Reporting Station
Scattered Clouds Scattered Clouds  
Wind Chill: 66°   Ceiling: Unl
Heat Index: 66°   Visibility: 6mi
Dew Point: 55°   Wind: 18mph
Humidity: 68%   Direction: 200°SSW
Pressure: 29.74"   Gusts: NA
Location:  32.15°S, 63.47°W
Report Text: SACO 201200Z 20016KT 9999 SCT030FEW034TCU SCT100 19/13 Q1007
Loading
Personal Weather Stations






























Interactive Weather Map New forecast layout! Learn more

10-Day Weather Forecast

Advertisements
Track Severe Weather on mobile